sensor_id;sensor_type;location;lat;lon;timestamp;temperature;humidity
6379;DHT22;3222;48.858;10.128;2023-03-01T00:01:09;0.00;99.90
6379;DHT22;3222;48.858;10.128;2023-03-01T00:03:35;0.00;99.90
6379;DHT22;3222;48.858;10.128;2023-03-01T00:06:02;0.10;99.90
6379;DHT22;3222;48.858;10.128;2023-03-01T00:08:28;0.00;99.90
6379;DHT22;3222;48.858;10.128;2023-03-01T00:13:27;0.00;99.90
6379;DHT22;3222;48.858;10.128;2023-03-01T00:15:53;-0.10;99.90
6379;DHT22;3222;48.858;10.128;2023-03-01T00:18:18;-0.10;99.90
6379;DHT22;3222;48.858;10.128;2023-03-01T00:20:50;-0.10;99.90
6379;DHT22;3222;48.858;10.128;2023-03-01T00:23:19;-0.20;99.90
6379;DHT22;3222;48.858;10.128;2023-03-01T00:25:44;-0.20;99.90
6379;DHT22;3222;48.858;10.128;2023-03-01T00:28:10;-0.10;99.90
6379;DHT22;3222;48.858;10.128;2023-03-01T00:30:36;-0.10;99.90
6379;DHT22;3222;48.858;10.128;2023-03-01T00:33:01;-0.20;99.90
6379;DHT22;3222;48.858;10.128;2023-03-01T00:35:27;-0.10;99.90
6379;DHT22;3222;48.858;10.128;2023-03-01T00:37:53;-0.10;99.90
6379;DHT22;3222;48.858;10.128;2023-03-01T00:40:27;0.00;99.90
6379;DHT22;3222;48.858;10.128;2023-03-01T00:42:53;0.00;99.90
6379;DHT22;3222;48.858;10.128;2023-03-01T00:45:18;0.00;99.90
6379;DHT22;3222;48.858;10.128;2023-03-01T00:47:44;0.00;99.90
6379;DHT22;3222;48.858;10.128;2023-03-01T00:50:11;0.00;99.90
6379;DHT22;3222;48.858;10.128;2023-03-01T00:52:37;0.00;99.90
6379;DHT22;3222;48.858;10.128;2023-03-01T00:55:04;0.00;99.90
6379;DHT22;3222;48.858;10.128;2023-03-01T00:57:29;0.10;99.90
6379;DHT22;3222;48.858;10.128;2023-03-01T00:59:55;0.00;99.90
6379;DHT22;3222;48.858;10.128;2023-03-01T01:02:21;0.00;99.90
6379;DHT22;3222;48.858;10.128;2023-03-01T01:04:47;0.00;99.90
6379;DHT22;3222;48.858;10.128;2023-03-01T01:07:13;0.00;99.90
6379;DHT22;3222;48.858;10.128;2023-03-01T01:09:40;0.10;99.90
6379;DHT22;3222;48.858;10.128;2023-03-01T01:12:06;0.10;99.90
6379;DHT22;3222;48.858;10.128;2023-03-01T01:14:33;0.10;99.90
6379;DHT22;3222;48.858;10.128;2023-03-01T01:16:59;0.10;99.90
6379;DHT22;3222;48.858;10.128;2023-03-01T01:19:25;0.20;99.90
6379;DHT22;3222;48.858;10.128;2023-03-01T01:21:51;0.20;99.90
6379;DHT22;3222;48.858;10.128;2023-03-01T01:24:18;0.30;99.90
6379;DHT22;3222;48.858;10.128;2023-03-01T01:26:45;0.30;99.90
6379;DHT22;3222;48.858;10.128;2023-03-01T01:29:12;0.30;99.90
6379;DHT22;3222;48.858;10.128;2023-03-01T01:31:39;0.30;99.90
6379;DHT22;3222;48.858;10.128;2023-03-01T01:34:07;0.30;99.90
6379;DHT22;3222;48.858;10.128;2023-03-01T01:36:34;0.30;99.90
6379;DHT22;3222;48.858;10.128;2023-03-01T01:39:00;0.30;99.90
6379;DHT22;3222;48.858;10.128;2023-03-01T01:41:27;0.30;99.90
6379;DHT22;3222;48.858;10.128;2023-03-01T01:49:25;0.20;99.90
6379;DHT22;3222;48.858;10.128;2023-03-01T01:52:16;0.20;99.90
6379;DHT22;3222;48.858;10.128;2023-03-01T01:55:09;0.20;99.90
6379;DHT22;3222;48.858;10.128;2023-03-01T01:57:43;0.10;99.90
6379;DHT22;3222;48.858;10.128;2023-03-01T02:02:43;0.10;99.90
6379;DHT22;3222;48.858;10.128;2023-03-01T02:05:22;0.00;99.90
6379;DHT22;3222;48.858;10.128;2023-03-01T02:07:50;0.00;99.90
6379;DHT22;3222;48.858;10.128;2023-03-01T02:10:20;0.00;99.90
6379;DHT22;3222;48.858;10.128;2023-03-01T02:12:46;0.10;99.90
6379;DHT22;3222;48.858;10.128;2023-03-01T02:15:12;0.10;99.90
6379;DHT22;3222;48.858;10.128;2023-03-01T02:17:37;0.10;99.90
6379;DHT22;3222;48.858;10.128;2023-03-01T02:22:43;-0.10;99.90
6379;DHT22;3222;48.858;10.128;2023-03-01T02:30:10;-0.10;99.90
6379;DHT22;3222;48.858;10.128;2023-03-01T02:32:40;-0.10;99.90
6379;DHT22;3222;48.858;10.128;2023-03-01T02:35:10;-0.10;99.90
6379;DHT22;3222;48.858;10.128;2023-03-01T02:37:37;-0.20;99.90
6379;DHT22;3222;48.858;10.128;2023-03-01T02:40:08;-0.20;99.90
6379;DHT22;3222;48.858;10.128;2023-03-01T02:42:49;-0.20;99.90
6379;DHT22;3222;48.858;10.128;2023-03-01T02:45:16;-0.30;99.90
6379;DHT22;3222;48.858;10.128;2023-03-01T02:47:42;-0.30;99.90
6379;DHT22;3222;48.858;10.128;2023-03-01T02:50:42;-0.30;99.90
6379;DHT22;3222;48.858;10.128;2023-03-01T02:53:29;-0.20;99.90
6379;DHT22;3222;48.858;10.128;2023-03-01T02:55:57;-0.20;99.90
6379;DHT22;3222;48.858;10.128;2023-03-01T02:58:24;-0.20;99.90
6379;DHT22;3222;48.858;10.128;2023-03-01T03:00:51;-0.10;99.90
6379;DHT22;3222;48.858;10.128;2023-03-01T03:03:20;-0.10;99.90
6379;DHT22;3222;48.858;10.128;2023-03-01T03:05:46;-0.10;99.90
6379;DHT22;3222;48.858;10.128;2023-03-01T03:08:14;0.00;99.90
6379;DHT22;3222;48.858;10.128;2023-03-01T03:10:49;0.00;99.90
6379;DHT22;3222;48.858;10.128;2023-03-01T03:13:15;-0.10;99.90
6379;DHT22;3222;48.858;10.128;2023-03-01T03:15:42;-0.10;99.90
6379;DHT22;3222;48.858;10.128;2023-03-01T03:18:11;-0.10;99.90
6379;DHT22;3222;48.858;10.128;2023-03-01T03:20:40;-0.10;99.90
6379;DHT22;3222;48.858;10.128;2023-03-01T03:23:06;-0.30;99.90
6379;DHT22;3222;48.858;10.128;2023-03-01T03:25:31;-0.30;99.90
6379;DHT22;3222;48.858;10.128;2023-03-01T03:27:58;-0.30;99.90
6379;DHT22;3222;48.858;10.128;2023-03-01T03:30:26;-0.30;99.90
6379;DHT22;3222;48.858;10.128;2023-03-01T03:32:52;-0.20;99.90
6379;DHT22;3222;48.858;10.128;2023-03-01T03:35:32;-0.30;99.90
6379;DHT22;3222;48.858;10.128;2023-03-01T03:38:00;-0.30;99.90
6379;DHT22;3222;48.858;10.128;2023-03-01T03:40:39;-0.20;99.90
6379;DHT22;3222;48.858;10.128;2023-03-01T03:43:08;-0.30;99.90
6379;DHT22;3222;48.858;10.128;2023-03-01T03:45:35;-0.40;99.90
6379;DHT22;3222;48.858;10.128;2023-03-01T03:48:02;-0.40;99.90
6379;DHT22;3222;48.858;10.128;2023-03-01T03:50:28;-0.40;99.90
6379;DHT22;3222;48.858;10.128;2023-03-01T03:52:54;-0.30;99.90
6379;DHT22;3222;48.858;10.128;2023-03-01T03:55:20;-0.40;99.90
6379;DHT22;3222;48.858;10.128;2023-03-01T03:57:47;-0.20;99.90
6379;DHT22;3222;48.858;10.128;2023-03-01T04:00:20;-0.30;99.90
6379;DHT22;3222;48.858;10.128;2023-03-01T04:02:48;-0.40;99.90
6379;DHT22;3222;48.858;10.128;2023-03-01T04:05:16;-0.40;99.90
6379;DHT22;3222;48.858;10.128;2023-03-01T04:07:43;-0.40;99.90
6379;DHT22;3222;48.858;10.128;2023-03-01T04:10:12;-0.40;99.90
6379;DHT22;3222;48.858;10.128;2023-03-01T04:12:38;-0.40;99.90
6379;DHT22;3222;48.858;10.128;2023-03-01T04:15:05;-0.50;99.90
6379;DHT22;3222;48.858;10.128;2023-03-01T04:17:43;-0.50;99.90
6379;DHT22;3222;48.858;10.128;2023-03-01T04:20:13;-0.50;99.90
6379;DHT22;3222;48.858;10.128;2023-03-01T04:22:40;-0.50;99.90
6379;DHT22;3222;48.858;10.128;2023-03-01T04:25:06;-0.50;99.90
6379;DHT22;3222;48.858;10.128;2023-03-01T04:27:36;-0.40;99.90
6379;DHT22;3222;48.858;10.128;2023-03-01T04:30:03;-0.40;99.90
6379;DHT22;3222;48.858;10.128;2023-03-01T04:32:29;-0.50;99.90
6379;DHT22;3222;48.858;10.128;2023-03-01T04:34:55;-0.50;99.90
6379;DHT22;3222;48.858;10.128;2023-03-01T04:37:20;-0.50;99.90
6379;DHT22;3222;48.858;10.128;2023-03-01T04:39:46;-0.50;99.90
6379;DHT22;3222;48.858;10.128;2023-03-01T04:42:14;-0.60;99.90
6379;DHT22;3222;48.858;10.128;2023-03-01T04:44:40;-0.60;99.90
6379;DHT22;3222;48.858;10.128;2023-03-01T04:47:06;-0.60;99.90
6379;DHT22;3222;48.858;10.128;2023-03-01T04:49:31;-0.60;99.90
6379;DHT22;3222;48.858;10.128;2023-03-01T04:51:57;-0.60;99.90
6379;DHT22;3222;48.858;10.128;2023-03-01T04:54:28;-0.50;99.90
6379;DHT22;3222;48.858;10.128;2023-03-01T04:56:54;-0.50;99.90
6379;DHT22;3222;48.858;10.128;2023-03-01T04:59:20;-0.40;99.90
6379;DHT22;3222;48.858;10.128;2023-03-01T05:01:50;-0.50;99.90
6379;DHT22;3222;48.858;10.128;2023-03-01T05:04:16;-0.40;99.90
6379;DHT22;3222;48.858;10.128;2023-03-01T05:06:42;-0.30;99.90
6379;DHT22;3222;48.858;10.128;2023-03-01T05:09:08;-0.40;99.90
6379;DHT22;3222;48.858;10.128;2023-03-01T05:11:33;-0.30;99.90
6379;DHT22;3222;48.858;10.128;2023-03-01T05:14:05;-0.40;99.90
6379;DHT22;3222;48.858;10.128;2023-03-01T05:16:32;-0.50;99.90
6379;DHT22;3222;48.858;10.128;2023-03-01T05:18:59;-0.60;99.90
6379;DHT22;3222;48.858;10.128;2023-03-01T05:21:25;-0.50;99.90
6379;DHT22;3222;48.858;10.128;2023-03-01T05:23:51;-0.50;99.90
6379;DHT22;3222;48.858;10.128;2023-03-01T05:26:18;-0.60;99.90
6379;DHT22;3222;48.858;10.128;2023-03-01T05:28:44;-0.60;99.90
6379;DHT22;3222;48.858;10.128;2023-03-01T05:31:10;-0.50;99.90
6379;DHT22;3222;48.858;10.128;2023-03-01T05:33:40;-0.60;99.90
6379;DHT22;3222;48.858;10.128;2023-03-01T05:36:07;-0.60;99.90
6379;DHT22;3222;48.858;10.128;2023-03-01T05:38:34;-0.60;99.90
6379;DHT22;3222;48.858;10.128;2023-03-01T05:40:59;-0.50;99.90
6379;DHT22;3222;48.858;10.128;2023-03-01T05:43:25;-0.60;99.90
6379;DHT22;3222;48.858;10.128;2023-03-01T05:45:51;-0.50;99.90
6379;DHT22;3222;48.858;10.128;2023-03-01T05:48:17;-0.50;99.90
6379;DHT22;3222;48.858;10.128;2023-03-01T05:50:45;-0.60;99.90
6379;DHT22;3222;48.858;10.128;2023-03-01T05:53:18;-0.50;99.90
6379;DHT22;3222;48.858;10.128;2023-03-01T05:55:45;-0.60;99.90
6379;DHT22;3222;48.858;10.128;2023-03-01T05:58:21;-0.60;99.90
6379;DHT22;3222;48.858;10.128;2023-03-01T06:00:48;-0.70;99.90
6379;DHT22;3222;48.858;10.128;2023-03-01T06:03:15;-0.70;99.90
6379;DHT22;3222;48.858;10.128;2023-03-01T06:05:42;-0.80;99.90
6379;DHT22;3222;48.858;10.128;2023-03-01T06:08:09;-0.60;99.90
6379;DHT22;3222;48.858;10.128;2023-03-01T06:10:35;-0.80;99.90
6379;DHT22;3222;48.858;10.128;2023-03-01T06:13:01;-0.70;99.90
6379;DHT22;3222;48.858;10.128;2023-03-01T06:15:27;-0.80;99.90
6379;DHT22;3222;48.858;10.128;2023-03-01T06:17:54;-0.80;99.90
6379;DHT22;3222;48.858;10.128;2023-03-01T06:20:24;-0.80;99.90
6379;DHT22;3222;48.858;10.128;2023-03-01T06:22:50;-0.80;99.90
6379;DHT22;3222;48.858;10.128;2023-03-01T06:25:19;-0.90;99.90
6379;DHT22;3222;48.858;10.128;2023-03-01T06:27:45;-0.90;99.90
6379;DHT22;3222;48.858;10.128;2023-03-01T06:30:13;-0.90;99.90
6379;DHT22;3222;48.858;10.128;2023-03-01T06:32:40;-0.80;99.90
6379;DHT22;3222;48.858;10.128;2023-03-01T06:35:14;-0.80;99.90
6379;DHT22;3222;48.858;10.128;2023-03-01T06:37:40;-0.80;99.90
6379;DHT22;3222;48.858;10.128;2023-03-01T06:40:07;-0.70;99.90
6379;DHT22;3222;48.858;10.128;2023-03-01T06:42:38;-0.70;99.90
6379;DHT22;3222;48.858;10.128;2023-03-01T06:45:06;-0.60;99.90
6379;DHT22;3222;48.858;10.128;2023-03-01T06:47:33;-0.60;99.90
6379;DHT22;3222;48.858;10.128;2023-03-01T06:50:00;-0.70;99.90
6379;DHT22;3222;48.858;10.128;2023-03-01T06:52:26;-0.70;99.90
6379;DHT22;3222;48.858;10.128;2023-03-01T06:54:52;-0.70;99.90
6379;DHT22;3222;48.858;10.128;2023-03-01T06:57:18;-0.60;99.90
6379;DHT22;3222;48.858;10.128;2023-03-01T06:59:43;-0.70;99.90
6379;DHT22;3222;48.858;10.128;2023-03-01T07:02:11;-0.70;99.90
6379;DHT22;3222;48.858;10.128;2023-03-01T07:04:37;-0.80;99.90
6379;DHT22;3222;48.858;10.128;2023-03-01T07:07:03;-0.70;99.90
6379;DHT22;3222;48.858;10.128;2023-03-01T07:09:28;-0.70;99.90
6379;DHT22;3222;48.858;10.128;2023-03-01T07:11:54;-0.70;99.90
6379;DHT22;3222;48.858;10.128;2023-03-01T07:14:21;-0.80;99.90
6379;DHT22;3222;48.858;10.128;2023-03-01T07:16:47;-0.80;99.90
6379;DHT22;3222;48.858;10.128;2023-03-01T07:19:13;-0.80;99.90
6379;DHT22;3222;48.858;10.128;2023-03-01T07:21:38;-0.70;99.90
6379;DHT22;3222;48.858;10.128;2023-03-01T07:24:06;-0.60;99.90
6379;DHT22;3222;48.858;10.128;2023-03-01T07:26:32;-0.40;99.90
6379;DHT22;3222;48.858;10.128;2023-03-01T07:29:02;-0.50;99.90
6379;DHT22;3222;48.858;10.128;2023-03-01T07:31:29;-0.40;99.90
6379;DHT22;3222;48.858;10.128;2023-03-01T07:33:55;-0.40;99.90
6379;DHT22;3222;48.858;10.128;2023-03-01T07:36:22;-0.30;99.90
6379;DHT22;3222;48.858;10.128;2023-03-01T07:38:48;-0.20;99.90
6379;DHT22;3222;48.858;10.128;2023-03-01T07:41:13;0.00;99.90
6379;DHT22;3222;48.858;10.128;2023-03-01T07:43:39;0.00;99.90
6379;DHT22;3222;48.858;10.128;2023-03-01T07:46:05;-0.10;99.90
6379;DHT22;3222;48.858;10.128;2023-03-01T07:48:32;-0.20;99.90
6379;DHT22;3222;48.858;10.128;2023-03-01T07:51:01;0.00;99.90
6379;DHT22;3222;48.858;10.128;2023-03-01T07:53:27;0.10;99.90
6379;DHT22;3222;48.858;10.128;2023-03-01T07:56:08;0.20;99.90
6379;DHT22;3222;48.858;10.128;2023-03-01T07:58:35;0.20;99.90
6379;DHT22;3222;48.858;10.128;2023-03-01T08:01:05;0.30;99.90
6379;DHT22;3222;48.858;10.128;2023-03-01T08:03:31;0.20;99.90
6379;DHT22;3222;48.858;10.128;2023-03-01T08:05:59;0.40;99.90
6379;DHT22;3222;48.858;10.128;2023-03-01T08:08:25;0.60;99.90
6379;DHT22;3222;48.858;10.128;2023-03-01T08:10:51;0.70;99.90
6379;DHT22;3222;48.858;10.128;2023-03-01T08:13:17;0.70;99.90
6379;DHT22;3222;48.858;10.128;2023-03-01T08:15:48;0.70;99.90
6379;DHT22;3222;48.858;10.128;2023-03-01T08:18:15;0.80;99.90
6379;DHT22;3222;48.858;10.128;2023-03-01T08:20:40;0.90;99.90
6379;DHT22;3222;48.858;10.128;2023-03-01T08:23:06;0.80;99.90
6379;DHT22;3222;48.858;10.128;2023-03-01T08:25:31;0.90;99.90
6379;DHT22;3222;48.858;10.128;2023-03-01T08:27:57;0.90;99.90
6379;DHT22;3222;48.858;10.128;2023-03-01T08:30:23;0.90;99.90
6379;DHT22;3222;48.858;10.128;2023-03-01T08:32:49;1.00;99.90
6379;DHT22;3222;48.858;10.128;2023-03-01T08:35:16;1.00;99.90
6379;DHT22;3222;48.858;10.128;2023-03-01T08:37:41;1.10;99.90
6379;DHT22;3222;48.858;10.128;2023-03-01T08:40:08;1.20;99.90
6379;DHT22;3222;48.858;10.128;2023-03-01T08:42:36;1.20;99.90
6379;DHT22;3222;48.858;10.128;2023-03-01T08:45:02;1.30;99.90
6379;DHT22;3222;48.858;10.128;2023-03-01T08:47:28;1.30;99.90
6379;DHT22;3222;48.858;10.128;2023-03-01T08:49:54;1.30;99.90
6379;DHT22;3222;48.858;10.128;2023-03-01T08:52:20;1.40;99.90
6379;DHT22;3222;48.858;10.128;2023-03-01T08:54:49;1.50;99.90
6379;DHT22;3222;48.858;10.128;2023-03-01T08:57:15;1.60;99.90
6379;DHT22;3222;48.858;10.128;2023-03-01T08:59:40;1.70;99.90
6379;DHT22;3222;48.858;10.128;2023-03-01T09:02:12;1.80;99.90
6379;DHT22;3222;48.858;10.128;2023-03-01T09:04:38;1.90;99.90
6379;DHT22;3222;48.858;10.128;2023-03-01T09:07:04;1.90;99.90
6379;DHT22;3222;48.858;10.128;2023-03-01T09:09:30;1.90;99.90
6379;DHT22;3222;48.858;10.128;2023-03-01T09:11:56;2.10;99.90
6379;DHT22;3222;48.858;10.128;2023-03-01T09:14:21;2.10;99.90
6379;DHT22;3222;48.858;10.128;2023-03-01T09:16:47;2.10;99.90
6379;DHT22;3222;48.858;10.128;2023-03-01T09:19:13;2.10;99.90
6379;DHT22;3222;48.858;10.128;2023-03-01T09:21:39;2.10;99.90
6379;DHT22;3222;48.858;10.128;2023-03-01T09:24:15;2.30;99.90
6379;DHT22;3222;48.858;10.128;2023-03-01T09:26:53;2.40;99.90
6379;DHT22;3222;48.858;10.128;2023-03-01T09:29:18;2.30;99.90
6379;DHT22;3222;48.858;10.128;2023-03-01T09:31:44;2.40;99.90
6379;DHT22;3222;48.858;10.128;2023-03-01T09:34:10;2.50;99.90
6379;DHT22;3222;48.858;10.128;2023-03-01T09:36:36;2.50;99.90
6379;DHT22;3222;48.858;10.128;2023-03-01T09:39:02;2.60;99.90
6379;DHT22;3222;48.858;10.128;2023-03-01T09:41:45;2.60;99.90
6379;DHT22;3222;48.858;10.128;2023-03-01T09:44:23;2.70;99.90
6379;DHT22;3222;48.858;10.128;2023-03-01T09:46:52;2.80;99.90
6379;DHT22;3222;48.858;10.128;2023-03-01T09:49:31;3.10;99.90
6379;DHT22;3222;48.858;10.128;2023-03-01T09:52:12;3.00;99.90
6379;DHT22;3222;48.858;10.128;2023-03-01T09:54:38;3.10;99.90
6379;DHT22;3222;48.858;10.128;2023-03-01T09:57:17;3.00;99.90
6379;DHT22;3222;48.858;10.128;2023-03-01T10:03:39;3.10;99.90
6379;DHT22;3222;48.858;10.128;2023-03-01T10:08:26;3.40;99.90
6379;DHT22;3222;48.858;10.128;2023-03-01T10:10:53;3.40;99.90
6379;DHT22;3222;48.858;10.128;2023-03-01T10:15:50;3.60;99.90
6379;DHT22;3222;48.858;10.128;2023-03-01T10:18:23;3.60;99.90
6379;DHT22;3222;48.858;10.128;2023-03-01T10:20:55;3.70;99.90
6379;DHT22;3222;48.858;10.128;2023-03-01T10:23:23;3.80;99.90
6379;DHT22;3222;48.858;10.128;2023-03-01T10:31:17;4.00;99.90
6379;DHT22;3222;48.858;10.128;2023-03-01T10:33:43;4.10;99.90
6379;DHT22;3222;48.858;10.128;2023-03-01T10:36:09;4.10;99.90
6379;DHT22;3222;48.858;10.128;2023-03-01T10:38:52;4.20;99.90
6379;DHT22;3222;48.858;10.128;2023-03-01T10:41:20;4.20;99.90
6379;DHT22;3222;48.858;10.128;2023-03-01T10:43:48;4.00;99.90
6379;DHT22;3222;48.858;10.128;2023-03-01T10:46:32;4.00;99.90
6379;DHT22;3222;48.858;10.128;2023-03-01T10:49:21;3.80;99.90
6379;DHT22;3222;48.858;10.128;2023-03-01T10:51:49;3.90;99.90
6379;DHT22;3222;48.858;10.128;2023-03-01T10:54:32;4.10;99.90
6379;DHT22;3222;48.858;10.128;2023-03-01T10:57:04;4.30;99.90
6379;DHT22;3222;48.858;10.128;2023-03-01T10:59:32;4.30;99.90
6379;DHT22;3222;48.858;10.128;2023-03-01T11:02:21;4.30;99.90
6379;DHT22;3222;48.858;10.128;2023-03-01T11:07:54;4.50;99.90
6379;DHT22;3222;48.858;10.128;2023-03-01T11:10:27;4.60;99.90
6379;DHT22;3222;48.858;10.128;2023-03-01T11:12:56;4.60;99.90
6379;DHT22;3222;48.858;10.128;2023-03-01T11:15:30;4.50;99.90
6379;DHT22;3222;48.858;10.128;2023-03-01T11:17:57;4.50;99.90
6379;DHT22;3222;48.858;10.128;2023-03-01T11:20:33;4.60;99.90
6379;DHT22;3222;48.858;10.128;2023-03-01T11:23:08;4.80;99.90
6379;DHT22;3222;48.858;10.128;2023-03-01T11:25:42;4.90;99.90
6379;DHT22;3222;48.858;10.128;2023-03-01T11:28:12;4.70;99.90
6379;DHT22;3222;48.858;10.128;2023-03-01T11:30:55;4.60;99.90
6379;DHT22;3222;48.858;10.128;2023-03-01T11:33:44;4.60;99.90
6379;DHT22;3222;48.858;10.128;2023-03-01T11:36:35;4.50;99.90
6379;DHT22;3222;48.858;10.128;2023-03-01T11:41:52;4.90;99.90
6379;DHT22;3222;48.858;10.128;2023-03-01T11:44:26;4.90;99.90
6379;DHT22;3222;48.858;10.128;2023-03-01T11:52:48;4.80;99.90
6379;DHT22;3222;48.858;10.128;2023-03-01T11:55:30;4.80;99.90
6379;DHT22;3222;48.858;10.128;2023-03-01T12:06:55;5.10;99.90
6379;DHT22;3222;48.858;10.128;2023-03-01T12:09:43;5.00;99.90
6379;DHT22;3222;48.858;10.128;2023-03-01T12:12:36;4.90;99.90
6379;DHT22;3222;48.858;10.128;2023-03-01T12:18:22;4.80;99.90
6379;DHT22;3222;48.858;10.128;2023-03-01T12:26:40;5.10;99.90
6379;DHT22;3222;48.858;10.128;2023-03-01T12:39:51;5.30;99.90
6379;DHT22;3222;48.858;10.128;2023-03-01T12:50:50;5.40;99.90
6379;DHT22;3222;48.858;10.128;2023-03-01T12:53:26;5.60;99.90
6379;DHT22;3222;48.858;10.128;2023-03-01T12:55:55;5.50;99.90
6379;DHT22;3222;48.858;10.128;2023-03-01T12:58:24;5.40;99.90
6379;DHT22;3222;48.858;10.128;2023-03-01T13:03:43;5.70;99.90
6379;DHT22;3222;48.858;10.128;2023-03-01T13:11:56;5.60;99.90
6379;DHT22;3222;48.858;10.128;2023-03-01T13:16:54;5.70;99.90
6379;DHT22;3222;48.858;10.128;2023-03-01T13:21:47;6.10;99.90
6379;DHT22;3222;48.858;10.128;2023-03-01T13:29:56;6.50;99.90
6379;DHT22;3222;48.858;10.128;2023-03-01T13:32:32;6.50;99.90
6379;DHT22;3222;48.858;10.128;2023-03-01T13:37:28;6.50;99.90
6379;DHT22;3222;48.858;10.128;2023-03-01T13:39:59;6.50;99.90
6379;DHT22;3222;48.858;10.128;2023-03-01T13:42:41;6.40;99.90
6379;DHT22;3222;48.858;10.128;2023-03-01T13:45:21;6.40;99.90
6379;DHT22;3222;48.858;10.128;2023-03-01T13:47:54;6.60;99.90
6379;DHT22;3222;48.858;10.128;2023-03-01T13:50:24;6.70;99.90
6379;DHT22;3222;48.858;10.128;2023-03-01T13:52:55;6.70;99.90
6379;DHT22;3222;48.858;10.128;2023-03-01T13:55:36;6.70;99.90
6379;DHT22;3222;48.858;10.128;2023-03-01T13:58:23;6.70;99.90
6379;DHT22;3222;48.858;10.128;2023-03-01T14:00:58;6.80;99.90
6379;DHT22;3222;48.858;10.128;2023-03-01T14:03:25;6.70;99.90
6379;DHT22;3222;48.858;10.128;2023-03-01T14:06:14;6.60;99.90
6379;DHT22;3222;48.858;10.128;2023-03-01T14:08:44;6.70;99.90
6379;DHT22;3222;48.858;10.128;2023-03-01T14:19:28;6.90;99.90
6379;DHT22;3222;48.858;10.128;2023-03-01T14:24:55;7.20;99.90
6379;DHT22;3222;48.858;10.128;2023-03-01T14:27:21;7.30;99.90
6379;DHT22;3222;48.858;10.128;2023-03-01T14:30:01;7.40;99.90
6379;DHT22;3222;48.858;10.128;2023-03-01T14:32:31;7.20;99.90
6379;DHT22;3222;48.858;10.128;2023-03-01T14:34:59;7.30;99.90
6379;DHT22;3222;48.858;10.128;2023-03-01T14:37:34;7.40;99.90
6379;DHT22;3222;48.858;10.128;2023-03-01T14:40:02;7.30;99.90
6379;DHT22;3222;48.858;10.128;2023-03-01T14:42:33;7.30;99.90
6379;DHT22;3222;48.858;10.128;2023-03-01T14:45:01;7.40;99.90
6379;DHT22;3222;48.858;10.128;2023-03-01T14:47:35;7.20;99.90
6379;DHT22;3222;48.858;10.128;2023-03-01T14:50:20;7.30;99.90
6379;DHT22;3222;48.858;10.128;2023-03-01T14:52:49;7.40;99.90
6379;DHT22;3222;48.858;10.128;2023-03-01T14:55:18;7.20;99.90
6379;DHT22;3222;48.858;10.128;2023-03-01T14:57:47;7.30;99.90
6379;DHT22;3222;48.858;10.128;2023-03-01T15:00:28;7.40;99.90
6379;DHT22;3222;48.858;10.128;2023-03-01T15:02:56;7.60;99.90
6379;DHT22;3222;48.858;10.128;2023-03-01T15:05:32;7.80;99.90
6379;DHT22;3222;48.858;10.128;2023-03-01T15:08:00;7.80;99.90
6379;DHT22;3222;48.858;10.128;2023-03-01T15:10:29;7.90;99.90
6379;DHT22;3222;48.858;10.128;2023-03-01T15:12:56;8.00;99.90
6379;DHT22;3222;48.858;10.128;2023-03-01T15:15:42;8.00;99.90
6379;DHT22;3222;48.858;10.128;2023-03-01T15:18:20;7.90;99.90
6379;DHT22;3222;48.858;10.128;2023-03-01T15:20:48;7.90;99.90
6379;DHT22;3222;48.858;10.128;2023-03-01T15:23:32;7.90;99.90
6379;DHT22;3222;48.858;10.128;2023-03-01T15:25:58;7.80;99.90
6379;DHT22;3222;48.858;10.128;2023-03-01T15:28:34;7.90;99.90
6379;DHT22;3222;48.858;10.128;2023-03-01T15:31:07;7.80;99.90
6379;DHT22;3222;48.858;10.128;2023-03-01T15:33:38;7.70;99.90
6379;DHT22;3222;48.858;10.128;2023-03-01T15:36:31;7.70;99.90
6379;DHT22;3222;48.858;10.128;2023-03-01T15:38:59;7.60;99.90
6379;DHT22;3222;48.858;10.128;2023-03-01T15:41:47;7.50;99.90
6379;DHT22;3222;48.858;10.128;2023-03-01T15:44:28;7.60;99.90
6379;DHT22;3222;48.858;10.128;2023-03-01T15:46:54;7.70;99.90
6379;DHT22;3222;48.858;10.128;2023-03-01T15:49:41;7.40;99.90
6379;DHT22;3222;48.858;10.128;2023-03-01T15:52:22;7.30;99.90
6379;DHT22;3222;48.858;10.128;2023-03-01T15:54:58;7.30;99.90
6379;DHT22;3222;48.858;10.128;2023-03-01T15:57:24;7.10;99.90
6379;DHT22;3222;48.858;10.128;2023-03-01T15:59:50;6.90;99.90
6379;DHT22;3222;48.858;10.128;2023-03-01T16:02:16;6.90;99.90
6379;DHT22;3222;48.858;10.128;2023-03-01T16:04:41;6.80;99.90
6379;DHT22;3222;48.858;10.128;2023-03-01T16:07:09;6.90;99.90
6379;DHT22;3222;48.858;10.128;2023-03-01T16:09:35;6.90;99.90
6379;DHT22;3222;48.858;10.128;2023-03-01T16:12:01;6.90;99.90
6379;DHT22;3222;48.858;10.128;2023-03-01T16:14:27;6.80;99.90
6379;DHT22;3222;48.858;10.128;2023-03-01T16:16:53;6.60;99.90
6379;DHT22;3222;48.858;10.128;2023-03-01T16:19:19;6.60;99.90
6379;DHT22;3222;48.858;10.128;2023-03-01T16:21:45;6.50;99.90
6379;DHT22;3222;48.858;10.128;2023-03-01T16:24:12;6.50;99.90
6379;DHT22;3222;48.858;10.128;2023-03-01T16:26:38;6.50;99.90
6379;DHT22;3222;48.858;10.128;2023-03-01T16:29:05;6.40;99.90
6379;DHT22;3222;48.858;10.128;2023-03-01T16:31:31;6.30;99.90
6379;DHT22;3222;48.858;10.128;2023-03-01T16:33:57;6.30;99.90
6379;DHT22;3222;48.858;10.128;2023-03-01T16:36:24;6.20;99.90
6379;DHT22;3222;48.858;10.128;2023-03-01T16:38:51;6.20;99.90
6379;DHT22;3222;48.858;10.128;2023-03-01T16:41:19;6.30;99.90
6379;DHT22;3222;48.858;10.128;2023-03-01T16:43:46;6.30;99.90
6379;DHT22;3222;48.858;10.128;2023-03-01T16:46:26;6.20;99.90
6379;DHT22;3222;48.858;10.128;2023-03-01T16:48:53;6.10;99.90
6379;DHT22;3222;48.858;10.128;2023-03-01T16:51:19;6.10;99.90
6379;DHT22;3222;48.858;10.128;2023-03-01T16:53:45;5.90;99.90
6379;DHT22;3222;48.858;10.128;2023-03-01T16:56:12;5.90;99.90
6379;DHT22;3222;48.858;10.128;2023-03-01T16:58:38;5.90;99.90
6379;DHT22;3222;48.858;10.128;2023-03-01T17:01:10;5.80;99.90
6379;DHT22;3222;48.858;10.128;2023-03-01T17:03:37;5.60;99.90
6379;DHT22;3222;48.858;10.128;2023-03-01T17:06:06;5.60;99.90
6379;DHT22;3222;48.858;10.128;2023-03-01T17:08:32;5.50;99.90
6379;DHT22;3222;48.858;10.128;2023-03-01T17:11:14;5.60;99.90
6379;DHT22;3222;48.858;10.128;2023-03-01T17:13:40;5.40;99.90
6379;DHT22;3222;48.858;10.128;2023-03-01T17:16:08;5.30;99.90
6379;DHT22;3222;48.858;10.128;2023-03-01T17:18:34;5.40;99.90
6379;DHT22;3222;48.858;10.128;2023-03-01T17:21:00;5.20;99.90
6379;DHT22;3222;48.858;10.128;2023-03-01T17:23:27;5.20;99.90
6379;DHT22;3222;48.858;10.128;2023-03-01T17:25:53;5.30;99.90
6379;DHT22;3222;48.858;10.128;2023-03-01T17:28:21;5.20;99.90
6379;DHT22;3222;48.858;10.128;2023-03-01T17:30:47;5.10;99.90
6379;DHT22;3222;48.858;10.128;2023-03-01T17:33:15;5.20;99.90
6379;DHT22;3222;48.858;10.128;2023-03-01T17:35:41;5.00;99.90
6379;DHT22;3222;48.858;10.128;2023-03-01T17:38:06;5.00;99.90
6379;DHT22;3222;48.858;10.128;2023-03-01T17:40:32;5.00;99.90
6379;DHT22;3222;48.858;10.128;2023-03-01T17:43:00;5.00;99.90
6379;DHT22;3222;48.858;10.128;2023-03-01T17:45:26;4.90;99.90
6379;DHT22;3222;48.858;10.128;2023-03-01T17:47:51;4.90;99.90
6379;DHT22;3222;48.858;10.128;2023-03-01T17:50:17;4.90;99.90
6379;DHT22;3222;48.858;10.128;2023-03-01T17:52:43;5.00;99.90
6379;DHT22;3222;48.858;10.128;2023-03-01T17:55:09;5.10;99.90
6379;DHT22;3222;48.858;10.128;2023-03-01T17:57:38;5.20;99.90
6379;DHT22;3222;48.858;10.128;2023-03-01T18:00:06;5.00;99.90
6379;DHT22;3222;48.858;10.128;2023-03-01T18:02:37;4.90;99.90
6379;DHT22;3222;48.858;10.128;2023-03-01T18:05:03;4.80;99.90